sensor_id;sensor_type;location;lat;lon;timestamp;temperature;humidity
70079;DHT22;57451;52.496;13.456;2022-10-16T00:01:17;14.80;78.30
70079;DHT22;57451;52.496;13.456;2022-10-16T00:03:45;14.70;78.30
70079;DHT22;57451;52.496;13.456;2022-10-16T00:06:14;14.70;78.50
70079;DHT22;57451;52.496;13.456;2022-10-16T00:08:44;14.80;78.50
70079;DHT22;57451;52.496;13.456;2022-10-16T00:11:14;14.80;78.50
70079;DHT22;57451;52.496;13.456;2022-10-16T00:13:43;14.90;78.20
70079;DHT22;57451;52.496;13.456;2022-10-16T00:16:12;14.90;79.00
70079;DHT22;57451;52.496;13.456;2022-10-16T00:18:41;14.90;79.20
70079;DHT22;57451;52.496;13.456;2022-10-16T00:21:10;14.90;78.90
70079;DHT22;57451;52.496;13.456;2022-10-16T00:23:39;15.00;79.20
70079;DHT22;57451;52.496;13.456;2022-10-16T00:26:11;15.00;78.50
70079;DHT22;57451;52.496;13.456;2022-10-16T00:28:39;15.00;78.60
70079;DHT22;57451;52.496;13.456;2022-10-16T00:31:08;15.00;78.60
70079;DHT22;57451;52.496;13.456;2022-10-16T00:33:38;15.10;79.30
70079;DHT22;57451;52.496;13.456;2022-10-16T00:36:06;15.10;79.40
70079;DHT22;57451;52.496;13.456;2022-10-16T00:38:34;15.10;79.50
70079;DHT22;57451;52.496;13.456;2022-10-16T00:41:01;15.10;79.30
70079;DHT22;57451;52.496;13.456;2022-10-16T00:43:39;15.10;79.40
70079;DHT22;57451;52.496;13.456;2022-10-16T00:46:13;15.10;79.20
70079;DHT22;57451;52.496;13.456;2022-10-16T00:48:44;15.20;78.80
70079;DHT22;57451;52.496;13.456;2022-10-16T00:51:13;15.20;78.90
70079;DHT22;57451;52.496;13.456;2022-10-16T00:53:41;15.20;78.90
70079;DHT22;57451;52.496;13.456;2022-10-16T00:56:08;15.30;78.60
70079;DHT22;57451;52.496;13.456;2022-10-16T00:58:37;15.30;78.70
70079;DHT22;57451;52.496;13.456;2022-10-16T01:01:04;15.30;78.80
70079;DHT22;57451;52.496;13.456;2022-10-16T01:03:36;15.30;78.70
70079;DHT22;57451;52.496;13.456;2022-10-16T01:06:23;15.40;78.80
70079;DHT22;57451;52.496;13.456;2022-10-16T01:09:14;15.40;78.30
70079;DHT22;57451;52.496;13.456;2022-10-16T01:11:49;15.40;78.20
70079;DHT22;57451;52.496;13.456;2022-10-16T01:14:24;15.40;78.10
70079;DHT22;57451;52.496;13.456;2022-10-16T01:16:58;15.40;78.00
70079;DHT22;57451;52.496;13.456;2022-10-16T01:19:41;15.50;78.70
70079;DHT22;57451;52.496;13.456;2022-10-16T01:22:11;15.50;78.20
70079;DHT22;57451;52.496;13.456;2022-10-16T01:24:41;15.50;78.30
70079;DHT22;57451;52.496;13.456;2022-10-16T01:27:13;15.50;78.60
70079;DHT22;57451;52.496;13.456;2022-10-16T01:29:48;15.50;78.40
70079;DHT22;57451;52.496;13.456;2022-10-16T01:32:24;15.50;78.50
70079;DHT22;57451;52.496;13.456;2022-10-16T01:34:58;15.50;78.30
70079;DHT22;57451;52.496;13.456;2022-10-16T01:37:35;15.50;78.00
70079;DHT22;57451;52.496;13.456;2022-10-16T01:40:07;15.50;77.80
70079;DHT22;57451;52.496;13.456;2022-10-16T01:42:40;15.50;77.50
70079;DHT22;57451;52.496;13.456;2022-10-16T01:45:11;15.50;77.60
70079;DHT22;57451;52.496;13.456;2022-10-16T01:47:40;15.50;77.70
70079;DHT22;57451;52.496;13.456;2022-10-16T01:50:09;15.60;77.60
70079;DHT22;57451;52.496;13.456;2022-10-16T01:52:41;15.50;77.90
70079;DHT22;57451;52.496;13.456;2022-10-16T01:55:14;15.50;77.60
70079;DHT22;57451;52.496;13.456;2022-10-16T01:57:47;15.50;78.00
70079;DHT22;57451;52.496;13.456;2022-10-16T02:00:17;15.50;77.90
70079;DHT22;57451;52.496;13.456;2022-10-16T02:02:49;15.50;78.10
70079;DHT22;57451;52.496;13.456;2022-10-16T02:05:21;15.50;78.30
70079;DHT22;57451;52.496;13.456;2022-10-16T02:07:50;15.50;78.30
70079;DHT22;57451;52.496;13.456;2022-10-16T02:10:18;15.50;78.30
70079;DHT22;57451;52.496;13.456;2022-10-16T02:12:50;15.50;78.20
70079;DHT22;57451;52.496;13.456;2022-10-16T02:15:21;15.50;78.20
70079;DHT22;57451;52.496;13.456;2022-10-16T02:17:49;15.50;78.80
70079;DHT22;57451;52.496;13.456;2022-10-16T02:20:16;15.50;79.10
70079;DHT22;57451;52.496;13.456;2022-10-16T02:22:47;15.50;78.40
70079;DHT22;57451;52.496;13.456;2022-10-16T02:25:19;15.50;78.70
70079;DHT22;57451;52.496;13.456;2022-10-16T02:27:54;15.50;78.60
70079;DHT22;57451;52.496;13.456;2022-10-16T02:30:25;15.50;78.60
70079;DHT22;57451;52.496;13.456;2022-10-16T02:32:56;15.60;78.50
70079;DHT22;57451;52.496;13.456;2022-10-16T02:35:26;15.60;78.50
70079;DHT22;57451;52.496;13.456;2022-10-16T02:37:55;15.60;78.60
70079;DHT22;57451;52.496;13.456;2022-10-16T02:40:24;15.60;78.30
70079;DHT22;57451;52.496;13.456;2022-10-16T02:42:54;15.60;78.60
70079;DHT22;57451;52.496;13.456;2022-10-16T02:45:22;15.60;78.20
70079;DHT22;57451;52.496;13.456;2022-10-16T02:47:50;15.70;78.30
70079;DHT22;57451;52.496;13.456;2022-10-16T02:50:17;15.70;78.50
70079;DHT22;57451;52.496;13.456;2022-10-16T02:52:45;15.70;78.40
70079;DHT22;57451;52.496;13.456;2022-10-16T02:55:12;15.70;78.50
70079;DHT22;57451;52.496;13.456;2022-10-16T02:57:40;15.70;78.30
70079;DHT22;57451;52.496;13.456;2022-10-16T03:00:12;15.70;78.20
70079;DHT22;57451;52.496;13.456;2022-10-16T03:02:40;15.70;78.20
70079;DHT22;57451;52.496;13.456;2022-10-16T03:05:09;15.70;78.10
70079;DHT22;57451;52.496;13.456;2022-10-16T03:07:36;15.70;78.00
70079;DHT22;57451;52.496;13.456;2022-10-16T03:10:04;15.70;78.00
70079;DHT22;57451;52.496;13.456;2022-10-16T03:12:32;15.80;77.50
70079;DHT22;57451;52.496;13.456;2022-10-16T03:15:00;15.80;77.90
70079;DHT22;57451;52.496;13.456;2022-10-16T03:17:29;15.80;77.50
70079;DHT22;57451;52.496;13.456;2022-10-16T03:19:56;15.80;77.60
70079;DHT22;57451;52.496;13.456;2022-10-16T03:22:24;15.80;77.70
70079;DHT22;57451;52.496;13.456;2022-10-16T03:24:51;15.70;77.90
70079;DHT22;57451;52.496;13.456;2022-10-16T03:27:18;15.70;77.70
70079;DHT22;57451;52.496;13.456;2022-10-16T03:29:46;15.70;77.40
70079;DHT22;57451;52.496;13.456;2022-10-16T03:32:13;15.70;77.30
70079;DHT22;57451;52.496;13.456;2022-10-16T03:34:42;15.70;77.60
70079;DHT22;57451;52.496;13.456;2022-10-16T03:37:10;15.70;77.70
70079;DHT22;57451;52.496;13.456;2022-10-16T03:39:37;15.70;77.20
70079;DHT22;57451;52.496;13.456;2022-10-16T03:42:05;15.70;77.40
70079;DHT22;57451;52.496;13.456;2022-10-16T03:44:32;15.70;77.10
70079;DHT22;57451;52.496;13.456;2022-10-16T03:47:00;15.70;77.10
70079;DHT22;57451;52.496;13.456;2022-10-16T03:49:27;15.70;77.40
70079;DHT22;57451;52.496;13.456;2022-10-16T03:51:56;15.70;77.60
70079;DHT22;57451;52.496;13.456;2022-10-16T03:54:23;15.70;77.00
70079;DHT22;57451;52.496;13.456;2022-10-16T03:56:50;15.70;77.00
70079;DHT22;57451;52.496;13.456;2022-10-16T03:59:18;15.70;77.30
70079;DHT22;57451;52.496;13.456;2022-10-16T04:01:45;15.60;77.20
70079;DHT22;57451;52.496;13.456;2022-10-16T04:04:12;15.60;76.70
70079;DHT22;57451;52.496;13.456;2022-10-16T04:06:40;15.60;76.60
70079;DHT22;57451;52.496;13.456;2022-10-16T04:09:09;15.60;76.70
70079;DHT22;57451;52.496;13.456;2022-10-16T04:11:36;15.60;77.10
70079;DHT22;57451;52.496;13.456;2022-10-16T04:14:03;15.60;76.70
70079;DHT22;57451;52.496;13.456;2022-10-16T04:16:31;15.60;77.30
70079;DHT22;57451;52.496;13.456;2022-10-16T04:18:58;15.60;77.50
70079;DHT22;57451;52.496;13.456;2022-10-16T04:21:26;15.60;77.00
70079;DHT22;57451;52.496;13.456;2022-10-16T04:23:53;15.60;77.40
70079;DHT22;57451;52.496;13.456;2022-10-16T04:26:22;15.60;77.70
70079;DHT22;57451;52.496;13.456;2022-10-16T04:28:50;15.60;77.70
70079;DHT22;57451;52.496;13.456;2022-10-16T04:31:17;15.50;77.40
70079;DHT22;57451;52.496;13.456;2022-10-16T04:33:45;15.50;77.60
70079;DHT22;57451;52.496;13.456;2022-10-16T04:36:13;15.50;77.20
70079;DHT22;57451;52.496;13.456;2022-10-16T04:38:40;15.50;77.70
70079;DHT22;57451;52.496;13.456;2022-10-16T04:41:08;15.50;77.50
70079;DHT22;57451;52.496;13.456;2022-10-16T04:43:36;15.50;77.20
70079;DHT22;57451;52.496;13.456;2022-10-16T04:46:04;15.50;77.60
70079;DHT22;57451;52.496;13.456;2022-10-16T04:48:32;15.50;77.60
70079;DHT22;57451;52.496;13.456;2022-10-16T04:50:59;15.50;77.70
70079;DHT22;57451;52.496;13.456;2022-10-16T04:53:27;15.50;77.50
70079;DHT22;57451;52.496;13.456;2022-10-16T04:55:54;15.50;77.90
70079;DHT22;57451;52.496;13.456;2022-10-16T04:58:23;15.50;77.50
70079;DHT22;57451;52.496;13.456;2022-10-16T05:00:51;15.50;77.60
70079;DHT22;57451;52.496;13.456;2022-10-16T05:03:19;15.40;78.00
70079;DHT22;57451;52.496;13.456;2022-10-16T05:05:47;15.40;77.60
70079;DHT22;57451;52.496;13.456;2022-10-16T05:08:15;15.40;77.90
70079;DHT22;57451;52.496;13.456;2022-10-16T05:10:44;15.40;77.80
70079;DHT22;57451;52.496;13.456;2022-10-16T05:13:12;15.40;77.90
70079;DHT22;57451;52.496;13.456;2022-10-16T05:15:39;15.40;77.80
70079;DHT22;57451;52.496;13.456;2022-10-16T05:18:08;15.30;77.90
70079;DHT22;57451;52.496;13.456;2022-10-16T05:20:36;15.30;77.20
70079;DHT22;57451;52.496;13.456;2022-10-16T05:23:03;15.30;77.50
70079;DHT22;57451;52.496;13.456;2022-10-16T05:25:30;15.20;77.80
70079;DHT22;57451;52.496;13.456;2022-10-16T05:27:58;15.20;77.90
70079;DHT22;57451;52.496;13.456;2022-10-16T05:30:25;15.20;78.20
70079;DHT22;57451;52.496;13.456;2022-10-16T05:32:53;15.20;78.30
70079;DHT22;57451;52.496;13.456;2022-10-16T05:35:22;15.20;78.40
70079;DHT22;57451;52.496;13.456;2022-10-16T05:37:49;15.10;78.40
70079;DHT22;57451;52.496;13.456;2022-10-16T05:40:16;15.10;79.00
70079;DHT22;57451;52.496;13.456;2022-10-16T05:42:44;15.10;79.00
70079;DHT22;57451;52.496;13.456;2022-10-16T05:45:11;15.10;79.00
70079;DHT22;57451;52.496;13.456;2022-10-16T05:47:39;15.10;78.80
70079;DHT22;57451;52.496;13.456;2022-10-16T05:50:07;15.10;78.90
70079;DHT22;57451;52.496;13.456;2022-10-16T05:52:36;15.10;78.50
70079;DHT22;57451;52.496;13.456;2022-10-16T05:55:05;15.00;78.30
70079;DHT22;57451;52.496;13.456;2022-10-16T05:57:32;15.00;78.70
70079;DHT22;57451;52.496;13.456;2022-10-16T05:59:59;15.00;78.10
70079;DHT22;57451;52.496;13.456;2022-10-16T06:02:27;15.00;77.90
70079;DHT22;57451;52.496;13.456;2022-10-16T06:04:54;15.00;78.50
70079;DHT22;57451;52.496;13.456;2022-10-16T06:07:22;15.00;78.70
70079;DHT22;57451;52.496;13.456;2022-10-16T06:09:52;15.00;78.70
70079;DHT22;57451;52.496;13.456;2022-10-16T06:12:20;15.10;78.90
70079;DHT22;57451;52.496;13.456;2022-10-16T06:14:47;15.10;78.60
70079;DHT22;57451;52.496;13.456;2022-10-16T06:17:15;15.10;78.70
70079;DHT22;57451;52.496;13.456;2022-10-16T06:19:43;15.10;78.10
70079;DHT22;57451;52.496;13.456;2022-10-16T06:22:11;15.10;78.80
70079;DHT22;57451;52.496;13.456;2022-10-16T06:24:38;15.10;78.90
70079;DHT22;57451;52.496;13.456;2022-10-16T06:27:07;15.10;78.80
70079;DHT22;57451;52.496;13.456;2022-10-16T06:29:34;15.10;78.90
70079;DHT22;57451;52.496;13.456;2022-10-16T06:32:02;15.10;78.90
70079;DHT22;57451;52.496;13.456;2022-10-16T06:34:29;15.10;79.30
70079;DHT22;57451;52.496;13.456;2022-10-16T06:36:56;15.10;79.10
70079;DHT22;57451;52.496;13.456;2022-10-16T06:39:24;15.10;79.10
70079;DHT22;57451;52.496;13.456;2022-10-16T06:41:51;15.10;78.50
70079;DHT22;57451;52.496;13.456;2022-10-16T06:44:21;15.10;78.80
70079;DHT22;57451;52.496;13.456;2022-10-16T06:46:49;15.20;78.50
70079;DHT22;57451;52.496;13.456;2022-10-16T06:49:16;15.20;78.60
70079;DHT22;57451;52.496;13.456;2022-10-16T06:51:48;15.20;78.60
70079;DHT22;57451;52.496;13.456;2022-10-16T06:54:16;15.30;78.50
70079;DHT22;57451;52.496;13.456;2022-10-16T06:56:44;15.30;78.50
70079;DHT22;57451;52.496;13.456;2022-10-16T06:59:12;15.30;78.50
70079;DHT22;57451;52.496;13.456;2022-10-16T07:01:41;15.30;78.70
70079;DHT22;57451;52.496;13.456;2022-10-16T07:04:08;15.40;78.60
70079;DHT22;57451;52.496;13.456;2022-10-16T07:06:35;15.40;78.40
70079;DHT22;57451;52.496;13.456;2022-10-16T07:09:04;15.40;78.70
70079;DHT22;57451;52.496;13.456;2022-10-16T07:11:32;15.40;78.50
70079;DHT22;57451;52.496;13.456;2022-10-16T07:14:00;15.50;78.30
70079;DHT22;57451;52.496;13.456;2022-10-16T07:16:29;15.50;78.60
70079;DHT22;57451;52.496;13.456;2022-10-16T07:19:00;15.60;78.80
70079;DHT22;57451;52.496;13.456;2022-10-16T07:21:30;15.60;78.50
70079;DHT22;57451;52.496;13.456;2022-10-16T07:23:59;15.60;78.20
70079;DHT22;57451;52.496;13.456;2022-10-16T07:26:30;15.70;78.20
70079;DHT22;57451;52.496;13.456;2022-10-16T07:28:58;15.80;78.50
70079;DHT22;57451;52.496;13.456;2022-10-16T07:31:26;15.80;78.30
70079;DHT22;57451;52.496;13.456;2022-10-16T07:33:54;15.90;78.40
70079;DHT22;57451;52.496;13.456;2022-10-16T07:36:22;16.00;78.30
70079;DHT22;57451;52.496;13.456;2022-10-16T07:38:50;16.00;78.10
70079;DHT22;57451;52.496;13.456;2022-10-16T07:41:23;16.10;78.20
70079;DHT22;57451;52.496;13.456;2022-10-16T07:43:52;16.10;78.10
70079;DHT22;57451;52.496;13.456;2022-10-16T07:46:21;16.20;78.00
70079;DHT22;57451;52.496;13.456;2022-10-16T07:48:50;16.20;77.70
70079;DHT22;57451;52.496;13.456;2022-10-16T07:51:19;16.30;77.60
70079;DHT22;57451;52.496;13.456;2022-10-16T07:53:48;16.30;77.30
70079;DHT22;57451;52.496;13.456;2022-10-16T07:56:16;16.40;77.40
70079;DHT22;57451;52.496;13.456;2022-10-16T07:58:44;16.40;77.20
70079;DHT22;57451;52.496;13.456;2022-10-16T08:01:13;16.50;76.90
70079;DHT22;57451;52.496;13.456;2022-10-16T08:03:44;16.50;77.40
70079;DHT22;57451;52.496;13.456;2022-10-16T08:06:13;16.60;76.60
70079;DHT22;57451;52.496;13.456;2022-10-16T08:08:40;16.60;76.60
70079;DHT22;57451;52.496;13.456;2022-10-16T08:11:09;16.60;76.90
70079;DHT22;57451;52.496;13.456;2022-10-16T08:13:37;16.60;76.50
70079;DHT22;57451;52.496;13.456;2022-10-16T08:16:05;16.60;76.60
70079;DHT22;57451;52.496;13.456;2022-10-16T08:18:35;16.60;76.70
70079;DHT22;57451;52.496;13.456;2022-10-16T08:21:04;16.60;77.10
70079;DHT22;57451;52.496;13.456;2022-10-16T08:23:32;16.70;77.10
70079;DHT22;57451;52.496;13.456;2022-10-16T08:26:04;16.70;76.90
70079;DHT22;57451;52.496;13.456;2022-10-16T08:28:33;16.70;76.70
70079;DHT22;57451;52.496;13.456;2022-10-16T08:31:06;16.80;76.60
70079;DHT22;57451;52.496;13.456;2022-10-16T08:33:33;16.80;76.50
70079;DHT22;57451;52.496;13.456;2022-10-16T08:36:02;16.90;76.40
70079;DHT22;57451;52.496;13.456;2022-10-16T08:38:30;16.90;76.50
70079;DHT22;57451;52.496;13.456;2022-10-16T08:41:10;17.00;76.40
70079;DHT22;57451;52.496;13.456;2022-10-16T08:44:06;17.00;76.10
70079;DHT22;57451;52.496;13.456;2022-10-16T08:46:43;17.10;76.10
70079;DHT22;57451;52.496;13.456;2022-10-16T08:49:17;17.10;75.80
70079;DHT22;57451;52.496;13.456;2022-10-16T08:51:44;17.20;75.60
70079;DHT22;57451;52.496;13.456;2022-10-16T08:54:22;17.20;75.60
70079;DHT22;57451;52.496;13.456;2022-10-16T08:56:54;17.20;75.40
70079;DHT22;57451;52.496;13.456;2022-10-16T08:59:23;17.30;75.30
70079;DHT22;57451;52.496;13.456;2022-10-16T09:01:51;17.30;75.10
70079;DHT22;57451;52.496;13.456;2022-10-16T09:04:44;17.30;75.10
70079;DHT22;57451;52.496;13.456;2022-10-16T09:07:17;17.30;75.10
70079;DHT22;57451;52.496;13.456;2022-10-16T09:10:00;17.30;74.80
70079;DHT22;57451;52.496;13.456;2022-10-16T09:12:36;17.40;74.90
70079;DHT22;57451;52.496;13.456;2022-10-16T09:15:15;17.50;74.70
70079;DHT22;57451;52.496;13.456;2022-10-16T09:17:50;17.70;74.40
70079;DHT22;57451;52.496;13.456;2022-10-16T09:20:37;17.80;74.20
70079;DHT22;57451;52.496;13.456;2022-10-16T09:23:14;17.80;73.50
70079;DHT22;57451;52.496;13.456;2022-10-16T09:25:44;18.00;72.70
70079;DHT22;57451;52.496;13.456;2022-10-16T09:28:12;18.10;72.80
70079;DHT22;57451;52.496;13.456;2022-10-16T09:30:41;18.20;72.40
70079;DHT22;57451;52.496;13.456;2022-10-16T09:33:10;18.30;72.20
70079;DHT22;57451;52.496;13.456;2022-10-16T09:35:40;18.40;72.30
70079;DHT22;57451;52.496;13.456;2022-10-16T09:38:08;18.60;71.80
70079;DHT22;57451;52.496;13.456;2022-10-16T09:40:37;18.70;71.10
70079;DHT22;57451;52.496;13.456;2022-10-16T09:43:19;18.80;69.60
70079;DHT22;57451;52.496;13.456;2022-10-16T09:45:56;19.00;70.40
70079;DHT22;57451;52.496;13.456;2022-10-16T09:48:26;19.20;70.40
70079;DHT22;57451;52.496;13.456;2022-10-16T09:50:58;19.40;68.90
70079;DHT22;57451;52.496;13.456;2022-10-16T09:53:36;19.60;67.10
70079;DHT22;57451;52.496;13.456;2022-10-16T09:56:04;19.80;66.30
70079;DHT22;57451;52.496;13.456;2022-10-16T09:58:42;19.80;65.70
70079;DHT22;57451;52.496;13.456;2022-10-16T10:01:14;19.80;66.30
70079;DHT22;57451;52.496;13.456;2022-10-16T10:03:43;19.90;66.30
70079;DHT22;57451;52.496;13.456;2022-10-16T10:06:18;20.00;66.00
70079;DHT22;57451;52.496;13.456;2022-10-16T10:08:59;20.20;66.50
70079;DHT22;57451;52.496;13.456;2022-10-16T10:11:44;20.40;65.10
70079;DHT22;57451;52.496;13.456;2022-10-16T10:14:18;20.40;64.70
70079;DHT22;57451;52.496;13.456;2022-10-16T10:16:47;20.60;63.80
70079;DHT22;57451;52.496;13.456;2022-10-16T10:19:17;20.60;63.60
70079;DHT22;57451;52.496;13.456;2022-10-16T10:21:45;20.60;63.50
70079;DHT22;57451;52.496;13.456;2022-10-16T10:24:13;20.70;63.00
70079;DHT22;57451;52.496;13.456;2022-10-16T10:26:48;20.60;63.10
70079;DHT22;57451;52.496;13.456;2022-10-16T10:29:26;20.60;63.30
70079;DHT22;57451;52.496;13.456;2022-10-16T10:32:05;20.60;62.90
70079;DHT22;57451;52.496;13.456;2022-10-16T10:34:45;20.60;63.20
70079;DHT22;57451;52.496;13.456;2022-10-16T10:37:33;20.50;62.40
70079;DHT22;57451;52.496;13.456;2022-10-16T10:40:08;20.50;63.30
70079;DHT22;57451;52.496;13.456;2022-10-16T10:42:45;20.60;63.50
70079;DHT22;57451;52.496;13.456;2022-10-16T10:45:20;20.60;62.50
70079;DHT22;57451;52.496;13.456;2022-10-16T10:47:59;20.60;62.90
70079;DHT22;57451;52.496;13.456;2022-10-16T10:50:34;20.70;61.80
70079;DHT22;57451;52.496;13.456;2022-10-16T10:53:10;20.80;61.20
70079;DHT22;57451;52.496;13.456;2022-10-16T10:55:46;21.00;62.00
70079;DHT22;57451;52.496;13.456;2022-10-16T10:58:42;21.10;60.20
70079;DHT22;57451;52.496;13.456;2022-10-16T11:01:13;21.30;60.50
70079;DHT22;57451;52.496;13.456;2022-10-16T11:04:09;21.30;59.40
70079;DHT22;57451;52.496;13.456;2022-10-16T11:06:45;21.50;60.90
70079;DHT22;57451;52.496;13.456;2022-10-16T11:09:18;21.70;60.80
70079;DHT22;57451;52.496;13.456;2022-10-16T11:11:49;21.90;60.30
70079;DHT22;57451;52.496;13.456;2022-10-16T11:14:20;22.10;58.40
70079;DHT22;57451;52.496;13.456;2022-10-16T11:16:52;22.10;56.70
70079;DHT22;57451;52.496;13.456;2022-10-16T11:19:29;22.30;56.80
70079;DHT22;57451;52.496;13.456;2022-10-16T11:22:04;22.40;55.80
70079;DHT22;57451;52.496;13.456;2022-10-16T11:24:40;22.50;56.90
70079;DHT22;57451;52.496;13.456;2022-10-16T11:27:11;22.60;55.50
70079;DHT22;57451;52.496;13.456;2022-10-16T11:29:46;22.50;54.40
70079;DHT22;57451;52.496;13.456;2022-10-16T11:32:22;22.50;54.70
70079;DHT22;57451;52.496;13.456;2022-10-16T11:34:59;22.40;55.00
70079;DHT22;57451;52.496;13.456;2022-10-16T11:37:31;22.30;53.70
70079;DHT22;57451;52.496;13.456;2022-10-16T11:40:15;22.20;55.30
70079;DHT22;57451;52.496;13.456;2022-10-16T11:42:50;22.30;55.60
70079;DHT22;57451;52.496;13.456;2022-10-16T11:45:26;22.40;55.20
70079;DHT22;57451;52.496;13.456;2022-10-16T11:48:00;22.50;55.30
70079;DHT22;57451;52.496;13.456;2022-10-16T11:50:36;22.70;53.70
70079;DHT22;57451;52.496;13.456;2022-10-16T11:53:11;22.80;53.50
70079;DHT22;57451;52.496;13.456;2022-10-16T11:55:42;22.90;52.80
70079;DHT22;57451;52.496;13.456;2022-10-16T11:58:22;23.00;51.80
70079;DHT22;57451;52.496;13.456;2022-10-16T12:00:57;23.10;52.30
70079;DHT22;57451;52.496;13.456;2022-10-16T12:03:30;23.10;52.90
70079;DHT22;57451;52.496;13.456;2022-10-16T12:06:09;23.10;50.40
70079;DHT22;57451;52.496;13.456;2022-10-16T12:08:39;23.10;50.20
70079;DHT22;57451;52.496;13.456;2022-10-16T12:11:09;22.90;50.90
70079;DHT22;57451;52.496;13.456;2022-10-16T12:13:38;22.80;51.50
70079;DHT22;57451;52.496;13.456;2022-10-16T12:16:19;22.80;50.30
70079;DHT22;57451;52.496;13.456;2022-10-16T12:18:48;22.80;52.00
70079;DHT22;57451;52.496;13.456;2022-10-16T12:21:17;22.90;52.40
70079;DHT22;57451;52.496;13.456;2022-10-16T12:23:48;23.00;50.60
70079;DHT22;57451;52.496;13.456;2022-10-16T12:26:24;22.90;50.70
70079;DHT22;57451;52.496;13.456;2022-10-16T12:28:53;23.00;50.50
70079;DHT22;57451;52.496;13.456;2022-10-16T12:31:21;23.20;50.30
70079;DHT22;57451;52.496;13.456;2022-10-16T12:33:58;23.50;49.60
70079;DHT22;57451;52.496;13.456;2022-10-16T12:36:30;23.70;49.80
70079;DHT22;57451;52.496;13.456;2022-10-16T12:38:58;23.90;49.60
70079;DHT22;57451;52.496;13.456;2022-10-16T12:41:28;24.20;48.60
70079;DHT22;57451;52.496;13.456;2022-10-16T12:43:58;24.40;47.90
70079;DHT22;57451;52.496;13.456;2022-10-16T12:46:38;24.50;48.40
70079;DHT22;57451;52.496;13.456;2022-10-16T12:49:21;24.70;47.00
70079;DHT22;57451;52.496;13.456;2022-10-16T12:51:50;24.80;46.40
70079;DHT22;57451;52.496;13.456;2022-10-16T12:54:26;25.10;45.20
70079;DHT22;57451;52.496;13.456;2022-10-16T12:57:26;25.20;45.80
70079;DHT22;57451;52.496;13.456;2022-10-16T13:00:13;25.30;46.60
70079;DHT22;57451;52.496;13.456;2022-10-16T13:03:04;25.60;46.60
70079;DHT22;57451;52.496;13.456;2022-10-16T13:05:49;25.90;46.20
70079;DHT22;57451;52.496;13.456;2022-10-16T13:08:35;25.90;42.20
70079;DHT22;57451;52.496;13.456;2022-10-16T13:11:12;26.00;43.60
70079;DHT22;57451;52.496;13.456;2022-10-16T13:14:09;26.20;43.50
70079;DHT22;57451;52.496;13.456;2022-10-16T13:17:04;26.50;42.90
70079;DHT22;57451;52.496;13.456;2022-10-16T13:19:46;27.00;43.60
70079;DHT22;57451;52.496;13.456;2022-10-16T13:22:24;27.40;42.60
70079;DHT22;57451;52.496;13.456;2022-10-16T13:25:25;27.70;41.20
70079;DHT22;57451;52.496;13.456;2022-10-16T13:28:03;28.00;40.00
70079;DHT22;57451;52.496;13.456;2022-10-16T13:30:54;28.20;40.10
70079;DHT22;57451;52.496;13.456;2022-10-16T13:33:41;28.50;40.70
70079;DHT22;57451;52.496;13.456;2022-10-16T13:36:21;28.50;41.50
70079;DHT22;57451;52.496;13.456;2022-10-16T13:39:06;28.50;39.80
70079;DHT22;57451;52.496;13.456;2022-10-16T13:42:03;28.40;40.40
70079;DHT22;57451;52.496;13.456;2022-10-16T13:44:44;28.30;40.10
70079;DHT22;57451;52.496;13.456;2022-10-16T13:47:31;28.30;41.70
70079;DHT22;57451;52.496;13.456;2022-10-16T13:51:10;28.40;40.60
70079;DHT22;57451;52.496;13.456;2022-10-16T13:54:07;28.60;40.80
70079;DHT22;57451;52.496;13.456;2022-10-16T13:57:21;28.70;40.30
70079;DHT22;57451;52.496;13.456;2022-10-16T14:00:22;28.90;41.00
70079;DHT22;57451;52.496;13.456;2022-10-16T14:03:18;29.00;38.50
70079;DHT22;57451;52.496;13.456;2022-10-16T14:06:49;28.90;39.90
70079;DHT22;57451;52.496;13.456;2022-10-16T14:10:28;28.90;40.50
70079;DHT22;57451;52.496;13.456;2022-10-16T14:13:36;28.50;39.80
70079;DHT22;57451;52.496;13.456;2022-10-16T14:16:35;28.10;39.50
70079;DHT22;57451;52.496;13.456;2022-10-16T14:19:32;28.00;40.70
70079;DHT22;57451;52.496;13.456;2022-10-16T14:25:23;27.30;41.80
70079;DHT22;57451;52.496;13.456;2022-10-16T14:28:00;27.10;41.50
70079;DHT22;57451;52.496;13.456;2022-10-16T14:30:28;26.80;41.50
70079;DHT22;57451;52.496;13.456;2022-10-16T14:33:05;26.60;42.70
70079;DHT22;57451;52.496;13.456;2022-10-16T14:35:40;26.40;41.60
70079;DHT22;57451;52.496;13.456;2022-10-16T14:38:18;26.10;42.80
70079;DHT22;57451;52.496;13.456;2022-10-16T14:40:50;26.00;43.50
70079;DHT22;57451;52.496;13.456;2022-10-16T14:43:22;25.70;43.20
70079;DHT22;57451;52.496;13.456;2022-10-16T14:45:56;25.50;44.80
70079;DHT22;57451;52.496;13.456;2022-10-16T14:48:28;25.40;44.80
70079;DHT22;57451;52.496;13.456;2022-10-16T14:50:57;25.30;45.50
70079;DHT22;57451;52.496;13.456;2022-10-16T14:53:27;25.30;45.00
70079;DHT22;57451;52.496;13.456;2022-10-16T14:55:58;25.20;45.30
70079;DHT22;57451;52.496;13.456;2022-10-16T14:58:32;24.90;45.20
70079;DHT22;57451;52.496;13.456;2022-10-16T15:01:00;24.70;44.80
70079;DHT22;57451;52.496;13.456;2022-10-16T15:03:27;24.70;45.00
70079;DHT22;57451;52.496;13.456;2022-10-16T15:05:55;24.60;46.20
70079;DHT22;57451;52.496;13.456;2022-10-16T15:08:22;24.60;45.80
70079;DHT22;57451;52.496;13.456;2022-10-16T15:10:51;24.60;46.20
70079;DHT22;57451;52.496;13.456;2022-10-16T15:13:20;24.50;45.70
70079;DHT22;57451;52.496;13.456;2022-10-16T15:15:47;24.30;46.20
70079;DHT22;57451;52.496;13.456;2022-10-16T15:18:16;24.30;45.20
70079;DHT22;57451;52.496;13.456;2022-10-16T15:20:48;24.10;45.40
70079;DHT22;57451;52.496;13.456;2022-10-16T15:23:17;24.00;46.80
70079;DHT22;57451;52.496;13.456;2022-10-16T15:25:47;23.90;46.50
70079;DHT22;57451;52.496;13.456;2022-10-16T15:28:16;23.70;46.10
70079;DHT22;57451;52.496;13.456;2022-10-16T15:30:45;23.50;46.70
70079;DHT22;57451;52.496;13.456;2022-10-16T15:33:15;23.40;47.30
70079;DHT22;57451;52.496;13.456;2022-10-16T15:35:45;23.30;47.60
70079;DHT22;57451;52.496;13.456;2022-10-16T15:38:14;23.10;48.00
70079;DHT22;57451;52.496;13.456;2022-10-16T15:40:42;23.00;47.60
70079;DHT22;57451;52.496;13.456;2022-10-16T15:43:09;22.70;47.40
70079;DHT22;57451;52.496;13.456;2022-10-16T15:45:37;22.50;48.20
70079;DHT22;57451;52.496;13.456;2022-10-16T15:48:08;22.40;49.00
70079;DHT22;57451;52.496;13.456;2022-10-16T15:50:37;22.20;47.90
70079;DHT22;57451;52.496;13.456;2022-10-16T15:53:05;22.00;48.00